createdAt,value
2022-10-05T00:00:11.979Z,0
2022-10-05T00:01:14.949Z,0
2022-10-05T00:02:12.064Z,0
2022-10-05T00:03:12.384Z,0
2022-10-05T00:04:12.116Z,0
2022-10-05T00:05:11.989Z,0
2022-10-05T00:06:11.920Z,0
2022-10-05T00:07:11.921Z,0
2022-10-05T00:08:12.338Z,0
2022-10-05T00:09:12.270Z,0
2022-10-05T00:10:12.119Z,0
2022-10-05T00:11:11.958Z,0
2022-10-05T00:12:14.925Z,0
2022-10-05T00:13:12.280Z,0
2022-10-05T00:14:12.030Z,0
2022-10-05T00:15:11.927Z,0
2022-10-05T00:16:12.024Z,0
2022-10-05T00:17:11.917Z,0
2022-10-05T00:18:12.266Z,0
2022-10-05T00:19:11.948Z,0
2022-10-05T00:20:11.900Z,0
2022-10-05T00:21:14.206Z,0
2022-10-05T00:22:12.103Z,0
2022-10-05T00:23:17.970Z,0
2022-10-05T00:24:12.270Z,0
2022-10-05T00:25:12.023Z,0
2022-10-05T00:26:11.895Z,0
2022-10-05T00:27:11.917Z,0
2022-10-05T00:28:12.393Z,0
2022-10-05T00:29:11.895Z,0
2022-10-05T00:30:11.981Z,0
2022-10-05T00:31:12.063Z,0
2022-10-05T00:32:11.940Z,0
2022-10-05T00:33:12.342Z,0
2022-10-05T00:34:14.959Z,0
2022-10-05T00:35:12.129Z,0
2022-10-05T00:36:12.118Z,0
2022-10-05T00:37:12.077Z,0
2022-10-05T00:38:12.342Z,0
2022-10-05T00:39:12.269Z,0
2022-10-05T00:40:12.015Z,0
2022-10-05T00:41:11.973Z,0
2022-10-05T00:42:12.039Z,0
2022-10-05T00:43:12.385Z,0
2022-10-05T00:44:12.078Z,0
2022-10-05T00:45:15.065Z,0
2022-10-05T00:46:12.169Z,0
2022-10-05T00:47:12.041Z,0
2022-10-05T00:48:12.271Z,0
2022-10-05T00:49:11.991Z,0
2022-10-05T00:50:11.922Z,0
2022-10-05T00:51:12.023Z,0
2022-10-05T00:52:11.899Z,0
2022-10-05T00:53:12.358Z,0
2022-10-05T00:54:15.950Z,0
2022-10-05T00:55:12.116Z,0
2022-10-05T00:56:15.062Z,0
2022-10-05T00:57:12.093Z,0
2022-10-05T00:58:12.340Z,0
2022-10-05T00:59:12.048Z,0
2022-10-05T01:00:11.928Z,0
2022-10-05T01:01:11.963Z,0
2022-10-05T01:02:12.109Z,0
2022-10-05T01:03:12.339Z,0
2022-10-05T01:04:12.113Z,0
2022-10-05T01:05:12.089Z,0
2022-10-05T01:06:12.131Z,0
2022-10-05T01:07:15.046Z,0
2022-10-05T01:08:12.287Z,0
2022-10-05T01:09:12.377Z,0
2022-10-05T01:10:11.975Z,0
2022-10-05T01:11:11.908Z,0
2022-10-05T01:12:11.920Z,0
2022-10-05T01:13:12.378Z,0
2022-10-05T01:14:11.897Z,0
2022-10-05T01:15:11.903Z,0
2022-10-05T01:16:11.977Z,0
2022-10-05T01:17:12.047Z,0
2022-10-05T01:18:18.253Z,0
2022-10-05T01:19:12.079Z,0
2022-10-05T01:20:11.922Z,0
2022-10-05T01:21:11.894Z,0
2022-10-05T01:22:12.045Z,0
2022-10-05T01:23:12.308Z,0
2022-10-05T01:24:12.273Z,0
2022-10-05T01:25:11.999Z,0
2022-10-05T01:26:12.047Z,0
2022-10-05T01:27:12.065Z,0
2022-10-05T01:28:12.405Z,0
2022-10-05T01:29:14.944Z,0
2022-10-05T01:30:12.125Z,0
2022-10-05T01:31:12.206Z,0
2022-10-05T01:32:11.974Z,0
2022-10-05T01:33:12.345Z,0
2022-10-05T01:34:12.068Z,0
2022-10-05T01:35:11.907Z,0
2022-10-05T01:36:11.899Z,0
2022-10-05T01:37:12.066Z,0
2022-10-05T01:38:12.272Z,0
2022-10-05T01:39:12.281Z,0
2022-10-05T01:40:15.034Z,0
2022-10-05T01:41:12.091Z,0
2022-10-05T01:42:12.015Z,0
2022-10-05T01:43:12.272Z,0
2022-10-05T01:44:11.995Z,0
2022-10-05T01:45:11.977Z,0
2022-10-05T01:46:12.020Z,0
2022-10-05T01:47:11.913Z,0
2022-10-05T01:48:12.349Z,0
2022-10-05T01:49:12.086Z,0
2022-10-05T01:50:12.117Z,0
2022-10-05T01:51:15.049Z,0
2022-10-05T01:52:12.002Z,0
2022-10-05T01:53:12.343Z,0
2022-10-05T01:54:12.279Z,0
2022-10-05T01:55:11.999Z,0
2022-10-05T01:56:11.911Z,0
2022-10-05T01:57:11.912Z,0
2022-10-05T01:58:12.379Z,0
2022-10-05T01:59:12.128Z,0
2022-10-05T02:00:11.993Z,0
2022-10-05T02:01:12.117Z,0
2022-10-05T02:02:15.084Z,0
2022-10-05T02:03:12.268Z,0
2022-10-05T02:04:17.668Z,0
2022-10-05T02:05:12.139Z,0
2022-10-05T02:06:12.093Z,0
2022-10-05T02:07:12.065Z,0
2022-10-05T02:08:12.556Z,0
2022-10-05T02:09:12.395Z,0
2022-10-05T02:10:12.007Z,0
2022-10-05T02:11:11.917Z,0
2022-10-05T02:12:11.904Z,0
2022-10-05T02:13:14.916Z,0
2022-10-05T02:14:12.131Z,0
2022-10-05T02:15:11.953Z,0
2022-10-05T02:16:11.978Z,0
2022-10-05T02:17:12.031Z,0
2022-10-05T02:18:12.272Z,0
2022-10-05T02:19:11.921Z,0
2022-10-05T02:20:11.979Z,0
2022-10-05T02:21:11.927Z,0
2022-10-05T02:22:12.041Z,0
2022-10-05T02:23:12.315Z,0
2022-10-05T02:24:18.003Z,0
2022-10-05T02:25:11.983Z,0
2022-10-05T02:26:11.928Z,0
2022-10-05T02:27:12.019Z,0
2022-10-05T02:28:12.320Z,0
2022-10-05T02:29:12.053Z,0
2022-10-05T02:30:16.354Z,0
2022-10-05T02:31:12.088Z,0
2022-10-05T02:32:11.895Z,0
2022-10-05T02:33:12.342Z,0
2022-10-05T02:34:11.980Z,0
2022-10-05T02:35:14.953Z,0
2022-10-05T02:36:11.986Z,0
2022-10-05T02:37:11.998Z,0
2022-10-05T02:38:12.277Z,0
2022-10-05T02:39:12.264Z,0
2022-10-05T02:40:12.074Z,0
2022-10-05T02:41:12.007Z,0
2022-10-05T02:42:12.021Z,0
2022-10-05T02:43:12.266Z,0
2022-10-05T02:44:12.016Z,0
2022-10-05T02:45:11.977Z,0
2022-10-05T02:46:14.942Z,0
2022-10-05T02:47:12.108Z,0
2022-10-05T02:48:12.339Z,0
2022-10-05T02:49:12.092Z,0
2022-10-05T02:50:12.027Z,0
2022-10-05T02:51:12.095Z,0
2022-10-05T02:52:12.062Z,0
2022-10-05T02:53:12.345Z,0
2022-10-05T02:54:12.276Z,0
2022-10-05T02:55:12.013Z,0
2022-10-05T02:56:11.914Z,0
2022-10-05T02:57:14.930Z,0
2022-10-05T02:58:12.275Z,0
2022-10-05T02:59:12.016Z,0
2022-10-05T03:00:11.977Z,0
2022-10-05T03:01:12.100Z,0
2022-10-05T03:02:12.164Z,0
2022-10-05T03:03:12.025Z,0
2022-10-05T03:04:13.124Z,0
2022-10-05T03:05:11.983Z,0
2022-10-05T03:06:11.980Z,0
2022-10-05T03:07:12.051Z,0
2022-10-05T03:08:18.004Z,0
2022-10-05T03:09:12.322Z,0
2022-10-05T03:10:12.002Z,0
2022-10-05T03:11:12.027Z,0
2022-10-05T03:12:12.126Z,0
2022-10-05T03:13:12.266Z,0
2022-10-05T03:14:11.902Z,0
2022-10-05T03:15:11.976Z,0
2022-10-05T03:16:12.099Z,0
2022-10-05T03:17:12.020Z,0
2022-10-05T03:18:12.108Z,0
2022-10-05T03:19:14.958Z,0
2022-10-05T03:20:11.988Z,0
2022-10-05T03:21:11.922Z,0
2022-10-05T03:22:11.916Z,0
2022-10-05T03:23:12.347Z,0
2022-10-05T03:24:12.275Z,0
2022-10-05T03:25:12.056Z,0
2022-10-05T03:26:11.997Z,0
2022-10-05T03:27:12.022Z,0
2022-10-05T03:28:12.406Z,0
2022-10-05T03:29:11.976Z,0
2022-10-05T03:30:14.974Z,0
2022-10-05T03:31:12.177Z,0
2022-10-05T03:32:12.008Z,0
2022-10-05T03:33:12.335Z,0
2022-10-05T03:34:12.273Z,0
2022-10-05T03:35:12.133Z,0
2022-10-05T03:36:12.013Z,0
2022-10-05T03:37:12.015Z,0
2022-10-05T03:38:12.450Z,0
2022-10-05T03:39:12.341Z,0
2022-10-05T03:40:12.095Z,0
2022-10-05T03:41:15.192Z,0
2022-10-05T03:42:11.950Z,0
2022-10-05T03:43:12.367Z,0
2022-10-05T03:44:11.995Z,0
2022-10-05T03:45:11.973Z,0
2022-10-05T03:46:12.184Z,0
2022-10-05T03:47:11.917Z,0
2022-10-05T03:48:12.354Z,0
2022-10-05T03:49:11.999Z,0
2022-10-05T03:50:12.055Z,0
2022-10-05T03:51:12.132Z,0
2022-10-05T03:52:14.943Z,0
2022-10-05T03:53:14.681Z,0
2022-10-05T03:54:12.271Z,0
2022-10-05T03:55:12.014Z,0
2022-10-05T03:56:12.037Z,0
2022-10-05T03:57:12.016Z,0
2022-10-05T03:58:12.273Z,0
2022-10-05T03:59:12.027Z,0
2022-10-05T04:00:12.037Z,0
2022-10-05T04:01:12.136Z,0
2022-10-05T04:02:12.146Z,0
2022-10-05T04:03:18.020Z,0
2022-10-05T04:04:11.969Z,0
2022-10-05T04:05:11.905Z,0
2022-10-05T04:06:11.902Z,0
2022-10-05T04:07:11.922Z,0
2022-10-05T04:08:12.347Z,0
2022-10-05T04:09:12.269Z,0
2022-10-05T04:10:11.913Z,0
2022-10-05T04:11:12.017Z,0
2022-10-05T04:12:12.340Z,0
2022-10-05T04:13:12.125Z,0
2022-10-05T04:14:15.084Z,0
2022-10-05T04:15:16.461Z,0
2022-10-05T04:16:12.080Z,0
2022-10-05T04:17:12.341Z,0
2022-10-05T04:18:11.963Z,0
2022-10-05T04:19:11.901Z,0
2022-10-05T04:20:11.933Z,0
2022-10-05T04:21:12.020Z,0
2022-10-05T04:22:12.265Z,0
2022-10-05T04:23:11.977Z,0
2022-10-05T04:24:11.897Z,0
2022-10-05T04:25:14.944Z,0
2022-10-05T04:26:12.004Z,0
2022-10-05T04:27:12.342Z,0
2022-10-05T04:28:12.036Z,0
2022-10-05T04:29:11.916Z,0
2022-10-05T04:30:11.923Z,0
2022-10-05T04:31:12.092Z,0
2022-10-05T04:32:12.036Z,0
2022-10-05T04:33:12.047Z,0
2022-10-05T04:34:11.978Z,0
2022-10-05T04:35:11.909Z,0
2022-10-05T04:36:15.020Z,0
2022-10-05T04:37:12.270Z,0
2022-10-05T04:38:12.003Z,0
2022-10-05T04:39:12.351Z,0
2022-10-05T04:40:12.081Z,0
2022-10-05T04:41:12.023Z,0
2022-10-05T04:42:12.277Z,0
2022-10-05T04:43:12.065Z,0
2022-10-05T04:44:12.128Z,0
2022-10-05T04:45:11.962Z,0
2022-10-05T04:46:11.931Z,0
2022-10-05T04:47:17.922Z,0
2022-10-05T04:48:11.989Z,0
2022-10-05T04:49:11.913Z,0
2022-10-05T04:50:11.906Z,0
2022-10-05T04:51:11.913Z,0
2022-10-05T04:52:12.345Z,0
2022-10-05T04:53:11.967Z,0
2022-10-05T04:54:12.344Z,0
2022-10-05T04:55:12.117Z,0
2022-10-05T04:56:12.086Z,0
2022-10-05T04:57:12.346Z,0
2022-10-05T04:58:14.941Z,0
2022-10-05T04:59:11.974Z,0
2022-10-05T05:00:11.975Z,0
2022-10-05T05:01:11.982Z,0
2022-10-05T05:02:12.346Z,0
2022-10-05T05:03:11.966Z,0
2022-10-05T05:04:11.999Z,0
2022-10-05T05:05:12.007Z,0
2022-10-05T05:06:17.351Z,0
2022-10-05T05:07:12.348Z,0
2022-10-05T05:08:11.974Z,0
2022-10-05T05:09:17.905Z,0
2022-10-05T05:10:11.980Z,0
2022-10-05T05:11:16.223Z,0
2022-10-05T05:12:11.982Z,0
2022-10-05T05:13:12.015Z,0
2022-10-05T05:14:11.920Z,0
2022-10-05T05:15:12.017Z,0
2022-10-05T05:16:12.038Z,0
2022-10-05T05:17:13.302Z,0
2022-10-05T05:18:12.093Z,0
2022-10-05T05:19:12.399Z,0
2022-10-05T05:20:15.016Z,0
2022-10-05T05:21:12.030Z,0
2022-10-05T05:22:12.015Z,0
2022-10-05T05:23:12.099Z,0
2022-10-05T05:24:12.267Z,0
2022-10-05T05:25:12.060Z,0
2022-10-05T05:26:12.043Z,0
2022-10-05T05:27:12.340Z,0
2022-10-05T05:28:12.045Z,0
2022-10-05T05:29:12.057Z,0
2022-10-05T05:30:12.103Z,0
2022-10-05T05:31:15.019Z,0
2022-10-05T05:32:12.113Z,0
2022-10-05T05:33:12.017Z,0
2022-10-05T05:34:11.970Z,0
2022-10-05T05:35:12.058Z,0
2022-10-05T05:36:12.079Z,0
2022-10-05T05:37:12.275Z,0
2022-10-05T05:38:11.909Z,0
2022-10-05T05:39:12.282Z,0
2022-10-05T05:40:11.915Z,0
2022-10-05T05:41:11.908Z,0
2022-10-05T05:42:15.000Z,0
2022-10-05T05:43:11.996Z,0
2022-10-05T05:44:11.916Z,0
2022-10-05T05:45:11.912Z,0
2022-10-05T05:46:11.942Z,0
2022-10-05T05:47:13.056Z,0
2022-10-05T05:48:12.021Z,0
2022-10-05T05:49:12.002Z,0
2022-10-05T05:50:12.116Z,0
2022-10-05T05:51:11.987Z,0
2022-10-05T05:52:12.338Z,0
2022-10-05T05:53:14.917Z,0
2022-10-05T05:54:12.521Z,0
2022-10-05T05:55:12.114Z,0
2022-10-05T05:56:12.134Z,0
2022-10-05T05:57:12.319Z,0
2022-10-05T05:58:12.081Z,0
2022-10-05T05:59:12.061Z,0
2022-10-05T06:00:11.936Z,0
2022-10-05T06:01:30.557Z,0
2022-10-05T06:02:12.027Z,0
2022-10-05T06:03:12.013Z,0
2022-10-05T06:04:14.939Z,0
2022-10-05T06:05:12.066Z,0
2022-10-05T06:06:11.903Z,0
2022-10-05T06:07:12.025Z,0
2022-10-05T06:08:11.982Z,0
2022-10-05T06:09:12.339Z,0
2022-10-05T06:10:12.021Z,0
2022-10-05T06:11:11.924Z,0
2022-10-05T06:12:12.362Z,0
2022-10-05T06:13:12.081Z,0
2022-10-05T06:14:11.995Z,0
2022-10-05T06:15:15.036Z,0
2022-10-05T06:16:12.015Z,0
2022-10-05T06:17:12.346Z,0
2022-10-05T06:18:12.057Z,0
2022-10-05T06:19:12.021Z,0
2022-10-05T06:20:12.137Z,0
2022-10-05T06:21:12.007Z,0
2022-10-05T06:22:12.059Z,0
2022-10-05T06:23:11.997Z,0
2022-10-05T06:24:12.543Z,0
2022-10-05T06:25:12.025Z,0
2022-10-05T06:26:14.918Z,0
2022-10-05T06:27:12.309Z,0
2022-10-05T06:28:12.095Z,0
2022-10-05T06:29:11.897Z,0
2022-10-05T06:30:12.016Z,0
2022-10-05T06:31:12.136Z,0
2022-10-05T06:32:12.048Z,0
2022-10-05T06:33:12.009Z,0
2022-10-05T06:34:12.097Z,0
2022-10-05T06:35:12.006Z,0
2022-10-05T06:36:11.920Z,0
2022-10-05T06:37:17.968Z,0
2022-10-05T06:38:11.952Z,0
2022-10-05T06:39:12.339Z,0
2022-10-05T06:40:12.091Z,0
2022-10-05T06:41:11.974Z,0
2022-10-05T06:42:12.355Z,0
2022-10-05T06:43:12.051Z,0
2022-10-05T06:44:12.091Z,0
2022-10-05T06:45:12.067Z,0
2022-10-05T06:46:12.033Z,0
2022-10-05T06:47:12.337Z,0
2022-10-05T06:48:14.957Z,0
2022-10-05T06:49:12.144Z,0
2022-10-05T06:50:11.897Z,0
2022-10-05T06:51:11.907Z,0
2022-10-05T06:52:12.362Z,0
2022-10-05T06:53:12.002Z,0
2022-10-05T06:54:12.276Z,0
2022-10-05T06:55:14.354Z,0
2022-10-05T06:56:11.999Z,0
2022-10-05T06:57:12.344Z,0
2022-10-05T06:58:12.008Z,0
2022-10-05T06:59:15.039Z,0
2022-10-05T07:00:12.046Z,88.376953125
2022-10-05T07:01:12.119Z,0
2022-10-05T07:02:12.320Z,0
2022-10-05T07:03:11.998Z,0
2022-10-05T07:04:11.922Z,0
2022-10-05T07:05:12.082Z,0
2022-10-05T07:06:12.056Z,88.1865234375
2022-10-05T07:07:12.270Z,87.8466796875
2022-10-05T07:08:11.992Z,87.5703125
2022-10-05T07:09:12.070Z,87.4189453125
2022-10-05T07:10:14.929Z,87.5458984375
2022-10-05T07:11:11.999Z,87.73046875
2022-10-05T07:12:12.353Z,87.01171875
2022-10-05T07:13:11.975Z,87.2861328125
2022-10-05T07:14:11.905Z,87.0263671875
2022-10-05T07:15:11.895Z,86.783203125
2022-10-05T07:16:12.001Z,86.7529296875
2022-10-05T07:17:12.344Z,86.705078125
2022-10-05T07:18:12.123Z,85.8154296875
2022-10-05T07:19:12.050Z,86.1640625
2022-10-05T07:20:12.026Z,86.6572265625
2022-10-05T07:21:15.066Z,86.5166015625
2022-10-05T07:22:12.269Z,85.74609375
2022-10-05T07:23:12.019Z,85.662109375
2022-10-05T07:24:12.349Z,85.6474609375
2022-10-05T07:25:11.999Z,85.8701171875
2022-10-05T07:26:12.025Z,86.240234375
2022-10-05T07:27:12.263Z,86.46484375
2022-10-05T07:28:12.121Z,86.8125
2022-10-05T07:29:12.079Z,86.7451171875
2022-10-05T07:30:11.992Z,86.443359375
2022-10-05T07:31:12.048Z,86.259765625
2022-10-05T07:32:15.451Z,86.310546875
2022-10-05T07:33:12.008Z,85.9111328125
2022-10-05T07:34:12.118Z,85.5859375
2022-10-05T07:35:11.921Z,85.66796875
2022-10-05T07:36:11.906Z,85.3779296875
2022-10-05T07:37:12.444Z,85.353515625
2022-10-05T07:38:12.001Z,85.5869140625
2022-10-05T07:39:12.318Z,85.1669921875
2022-10-05T07:40:12.002Z,84.4794921875
2022-10-05T07:41:12.340Z,84.7431640625
2022-10-05T07:42:11.974Z,84.3583984375
2022-10-05T07:43:15.038Z,83.0029296875
2022-10-05T07:44:13.064Z,82.7236328125
2022-10-05T07:45:12.039Z,82.5673828125
2022-10-05T07:46:11.967Z,82.396484375
2022-10-05T07:47:12.344Z,82.40625
2022-10-05T07:48:12.126Z,82.5673828125
2022-10-05T07:49:12.064Z,81.8369140625
2022-10-05T07:50:12.035Z,81.13671875
2022-10-05T07:51:12.083Z,80.66796875
2022-10-05T07:52:12.353Z,80.0537109375
2022-10-05T07:53:12.046Z,79.95703125
2022-10-05T07:54:17.933Z,79.8447265625
2022-10-05T07:55:11.968Z,79.2509765625
2022-10-05T07:56:12.346Z,79.810546875
2022-10-05T07:57:14.717Z,80.17578125
2022-10-05T07:58:11.979Z,80.060546875
2022-10-05T07:59:11.912Z,79.6474609375
2022-10-05T08:00:11.918Z,79.7255859375
2022-10-05T08:01:12.350Z,80.3173828125
2022-10-05T08:02:12.186Z,80.095703125
2022-10-05T08:03:11.966Z,80.1201171875
2022-10-05T08:04:11.911Z,80.0185546875
2022-10-05T08:05:14.958Z,80.4541015625
2022-10-05T08:06:12.275Z,80.8369140625
2022-10-05T08:07:12.036Z,80.9501953125
2022-10-05T08:08:14.305Z,81.3759765625
2022-10-05T08:09:12.346Z,81.4384765625
2022-10-05T08:10:12.098Z,80.5859375
2022-10-05T08:11:12.286Z,80.9619140625
2022-10-05T08:12:11.976Z,81.2939453125
2022-10-05T08:13:12.027Z,81.3935546875
2022-10-05T08:14:11.923Z,81.2890625
2022-10-05T08:15:11.946Z,81.3935546875
2022-10-05T08:16:15.385Z,81.708984375
2022-10-05T08:17:12.137Z,81.46484375
2022-10-05T08:18:11.990Z,80.921875
2022-10-05T08:19:11.919Z,80.6474609375
2022-10-05T08:20:11.919Z,80.00390625
2022-10-05T08:21:12.342Z,79.5341796875
2022-10-05T08:22:11.905Z,78.4462890625
2022-10-05T08:23:11.918Z,77.693359375
2022-10-05T08:24:12.348Z,77.359375
2022-10-05T08:25:12.019Z,77.1416015625
2022-10-05T08:26:12.349Z,76.5322265625
2022-10-05T08:27:14.936Z,76.32421875
2022-10-05T08:28:12.121Z,76.626953125
2022-10-05T08:29:13.941Z,76.115234375
2022-10-05T08:30:12.122Z,75.900390625
2022-10-05T08:31:12.358Z,76.169921875
2022-10-05T08:32:12.077Z,75.9619140625
2022-10-05T08:33:11.920Z,75.451171875
2022-10-05T08:34:12.004Z,75.6611328125
2022-10-05T08:35:12.046Z,75.732421875
2022-10-05T08:36:12.271Z,75.376953125
2022-10-05T08:37:12.163Z,75.2880859375
2022-10-05T08:38:14.951Z,75.4892578125
2022-10-05T08:39:12.288Z,75.37890625
2022-10-05T08:40:12.079Z,75.39453125
2022-10-05T08:41:12.003Z,75.1669921875
2022-10-05T08:42:11.909Z,74.7109375
2022-10-05T08:43:11.904Z,74.34765625
2022-10-05T08:44:12.012Z,74.9169921875
2022-10-05T08:45:11.943Z,75.2314453125
2022-10-05T08:46:12.452Z,74.0859375
2022-10-05T08:47:12.003Z,72.607421875
2022-10-05T08:48:11.905Z,72.521484375
2022-10-05T08:49:14.998Z,72.21484375
2022-10-05T08:50:12.121Z,71.7431640625
2022-10-05T08:51:12.339Z,71.9228515625
2022-10-05T08:52:12.120Z,72.11328125
2022-10-05T08:53:11.909Z,72.9755859375
2022-10-05T08:54:12.014Z,74.3125
2022-10-05T08:55:12.000Z,74.71875
2022-10-05T08:56:14.344Z,75.318359375
2022-10-05T08:57:12.111Z,74.806640625
2022-10-05T08:58:12.078Z,74.673828125
2022-10-05T08:59:12.039Z,74.73046875
2022-10-05T09:00:15.061Z,74.3515625
2022-10-05T09:01:12.327Z,74.22265625
2022-10-05T09:02:12.187Z,73.748046875
2022-10-05T09:03:12.017Z,74.044921875
2022-10-05T09:04:11.891Z,74
2022-10-05T09:05:11.894Z,73.6728515625
2022-10-05T09:06:12.016Z,73.35546875
2022-10-05T09:07:11.913Z,72.3603515625
2022-10-05T09:08:11.974Z,72.162109375
2022-10-05T09:09:12.033Z,71.7548828125
2022-10-05T09:10:11.935Z,72.0283203125
2022-10-05T09:11:18.310Z,71.994140625
2022-10-05T09:12:12.023Z,71.9208984375
2022-10-05T09:13:12.062Z,71.65625
2022-10-05T09:14:12.045Z,71.001953125
2022-10-05T09:15:25.436Z,70.15234375
2022-10-05T09:16:12.455Z,70.6318359375
2022-10-05T09:17:11.909Z,70.6240234375
2022-10-05T09:18:12.002Z,69.7919921875
2022-10-05T09:19:12.017Z,69.46875
2022-10-05T09:20:12.018Z,69.1064453125
2022-10-05T09:21:12.357Z,68.17578125
2022-10-05T09:22:14.959Z,67.2900390625
2022-10-05T09:23:11.993Z,66.5849609375
2022-10-05T09:24:11.965Z,66.3876953125
2022-10-05T09:25:12.347Z,65.94140625
2022-10-05T09:26:12.010Z,65.1826171875
2022-10-05T09:27:12.004Z,64.935546875
2022-10-05T09:28:11.920Z,64.4736328125
2022-10-05T09:29:11.921Z,63.0185546875
2022-10-05T09:30:11.901Z,62.3701171875
2022-10-05T09:31:12.515Z,62.107421875
2022-10-05T09:32:16.226Z,61.7763671875
2022-10-05T09:33:14.977Z,61.2216796875
2022-10-05T09:34:11.998Z,60.2236328125
2022-10-05T09:35:12.051Z,60.8544921875
2022-10-05T09:36:12.271Z,61.638671875
2022-10-05T09:37:12.072Z,61.505859375
2022-10-05T09:38:11.996Z,61.494140625
2022-10-05T09:39:11.920Z,62.7216796875
2022-10-05T09:40:12.339Z,62.8251953125
2022-10-05T09:41:12.128Z,63.4716796875
2022-10-05T09:42:12.122Z,63.7763671875
2022-10-05T09:43:12.112Z,64.2763671875
2022-10-05T09:44:14.978Z,64.86328125
2022-10-05T09:45:12.058Z,64.5888671875
2022-10-05T09:46:12.445Z,65.203125
2022-10-05T09:47:12.030Z,65.296875
2022-10-05T09:48:12.022Z,64.5107421875
2022-10-05T09:49:12.100Z,63.5283203125
2022-10-05T09:50:11.911Z,62.39453125
2022-10-05T09:51:12.346Z,62.16015625
2022-10-05T09:52:16.431Z,63.291015625
2022-10-05T09:53:11.897Z,63.6767578125
2022-10-05T09:54:12.050Z,62.3916015625
2022-10-05T09:55:17.954Z,61.3037109375
2022-10-05T09:56:12.296Z,61.6865234375
2022-10-05T09:57:12.149Z,61.5185546875
2022-10-05T09:58:12.082Z,61.5244140625
2022-10-05T09:59:12.018Z,61.7109375
2022-10-05T10:00:11.973Z,60.9892578125
2022-10-05T10:01:29.066Z,60.150390625
2022-10-05T10:02:12.036Z,59.76171875
2022-10-05T10:03:11.976Z,60.2744140625
2022-10-05T10:04:12.035Z,61.171875
2022-10-05T10:05:11.998Z,60.658203125
2022-10-05T10:06:17.983Z,59.3759765625
2022-10-05T10:07:12.103Z,59.529296875
2022-10-05T10:08:11.981Z,59.4853515625
2022-10-05T10:09:12.063Z,59.4345703125
2022-10-05T10:10:12.270Z,58.5888671875
2022-10-05T10:11:12.310Z,58.9716796875
2022-10-05T10:12:11.906Z,60.748046875
2022-10-05T10:13:11.914Z,61.1630859375
2022-10-05T10:14:11.904Z,61.85546875
2022-10-05T10:15:11.878Z,63.568359375
2022-10-05T10:16:12.395Z,63.63671875
2022-10-05T10:17:15.046Z,63.0498046875
2022-10-05T10:18:12.083Z,63.421875
2022-10-05T10:19:11.907Z,63.9892578125
2022-10-05T10:20:11.975Z,64.1376953125
2022-10-05T10:21:12.346Z,65.291015625
2022-10-05T10:22:12.124Z,66.3701171875
2022-10-05T10:23:11.902Z,67.146484375
2022-10-05T10:24:11.932Z,67.5419921875
2022-10-05T10:25:12.465Z,67.7314453125
2022-10-05T10:26:12.272Z,67.9873046875
2022-10-05T10:27:12.095Z,68.212890625
2022-10-05T10:28:15.035Z,67.26171875
2022-10-05T10:29:12.088Z,66.1689453125
2022-10-05T10:30:12.020Z,65.45703125
2022-10-05T10:31:12.354Z,64.5771484375
2022-10-05T10:32:12.083Z,63.6513671875
2022-10-05T10:33:12.001Z,63.5517578125
2022-10-05T10:34:11.896Z,63.51171875
2022-10-05T10:35:11.923Z,63.375
2022-10-05T10:36:12.355Z,62.046875
2022-10-05T10:37:11.965Z,61.1689453125
2022-10-05T10:38:12.048Z,61.6572265625
2022-10-05T10:39:15.050Z,61.47265625
2022-10-05T10:40:12.268Z,61.04296875
2022-10-05T10:41:12.285Z,60.576171875
2022-10-05T10:42:12.126Z,60.228515625
2022-10-05T10:43:12.092Z,60.017578125
2022-10-05T10:44:12.000Z,60.458984375
2022-10-05T10:45:11.980Z,60.4638671875
2022-10-05T10:46:12.425Z,59.669921875
2022-10-05T10:47:12.768Z,57.8818359375
2022-10-05T10:48:12.293Z,57.51953125
2022-10-05T10:49:12.083Z,56.724609375
2022-10-05T10:50:14.944Z,56.3359375
2022-10-05T10:51:11.990Z,56.671875
2022-10-05T10:52:12.056Z,57.951171875
2022-10-05T10:53:12.291Z,57.51171875
2022-10-05T10:54:12.006Z,56.833984375
2022-10-05T10:55:12.535Z,56.900390625
2022-10-05T10:56:12.031Z,55.3154296875
2022-10-05T10:57:11.895Z,53.4599609375
2022-10-05T10:58:15.916Z,52.76953125
2022-10-05T10:59:12.003Z,52.265625
2022-10-05T11:00:11.888Z,52.2373046875
2022-10-05T11:01:15.023Z,51.86328125
2022-10-05T11:02:12.018Z,50.5810546875
2022-10-05T11:03:12.413Z,51.59765625
2022-10-05T11:04:12.098Z,52.3876953125
2022-10-05T11:05:12.064Z,52.609375
2022-10-05T11:06:11.978Z,53.1923828125
2022-10-05T11:07:12.058Z,53.6455078125
2022-10-05T11:08:12.356Z,52.390625
2022-10-05T11:09:12.067Z,50.4169921875
2022-10-05T11:10:12.355Z,50.8759765625
2022-10-05T11:11:12.101Z,50.40625
2022-10-05T11:12:15.028Z,49.912109375
2022-10-05T11:13:12.281Z,49.681640625
2022-10-05T11:14:12.137Z,49.5400390625
2022-10-05T11:15:12.118Z,49.306640625
2022-10-05T11:16:14.600Z,48.30859375
2022-10-05T11:17:12.135Z,48.01953125
2022-10-05T11:18:12.281Z,48.7802734375
2022-10-05T11:19:12.077Z,49.5048828125
2022-10-05T11:20:12.009Z,49.580078125
2022-10-05T11:21:11.930Z,49.9697265625
2022-10-05T11:22:11.901Z,49.90625
2022-10-05T11:23:17.962Z,49.0771484375
2022-10-05T11:24:12.014Z,48.9599609375
2022-10-05T11:25:12.397Z,49.552734375
2022-10-05T11:26:12.024Z,49.4736328125
2022-10-05T11:27:12.096Z,49.2265625
2022-10-05T11:28:12.327Z,49.9697265625
2022-10-05T11:29:12.018Z,49.8076171875
2022-10-05T11:30:11.914Z,49.5234375
2022-10-05T11:31:11.995Z,49.7451171875
2022-10-05T11:32:11.925Z,50.388671875
2022-10-05T11:33:12.279Z,50.810546875
2022-10-05T11:34:14.996Z,50.671875
2022-10-05T11:35:12.112Z,51.203125
2022-10-05T11:36:12.122Z,51.5078125
2022-10-05T11:37:11.984Z,51.982421875
2022-10-05T11:38:12.374Z,52.4951171875
2022-10-05T11:39:11.987Z,53.0302734375
2022-10-05T11:40:12.283Z,52.736328125
2022-10-05T11:41:11.915Z,52.1044921875
2022-10-05T11:42:11.915Z,51.4697265625
2022-10-05T11:43:12.364Z,50.6181640625
2022-10-05T11:44:12.004Z,50.431640625
2022-10-05T11:45:14.966Z,50.404296875
2022-10-05T11:46:12.107Z,50.1337890625
2022-10-05T11:47:11.973Z,50.2041015625
2022-10-05T11:48:12.354Z,49.78515625
2022-10-05T11:49:12.008Z,48.61328125
2022-10-05T11:50:11.928Z,48.380859375
2022-10-05T11:51:12.032Z,48.1904296875
2022-10-05T11:52:12.004Z,47.71484375
2022-10-05T11:53:12.572Z,47.0908203125
2022-10-05T11:54:12.124Z,47.0673828125
2022-10-05T11:55:12.477Z,48.544921875
2022-10-05T11:56:15.000Z,49.1201171875
2022-10-05T11:57:12.265Z,48.8232421875
2022-10-05T11:58:12.283Z,49.4140625
2022-10-05T11:59:12.087Z,49.4443359375
2022-10-05T12:00:13.694Z,48.8359375
2022-10-05T12:01:12.082Z,48.98046875
2022-10-05T12:02:11.903Z,49.0234375
2022-10-05T12:03:12.504Z,48.5458984375
2022-10-05T12:04:12.124Z,48.66015625
2022-10-05T12:05:11.916Z,48.8203125
2022-10-05T12:06:12.004Z,49.5439453125
2022-10-05T12:07:14.965Z,50.357421875
2022-10-05T12:08:12.287Z,50.3984375
2022-10-05T12:09:11.999Z,50.20703125
2022-10-05T12:10:12.356Z,50.6455078125
2022-10-05T12:11:12.089Z,50.25390625
2022-10-05T12:12:11.932Z,50.5849609375
2022-10-05T12:13:12.280Z,50.5615234375
2022-10-05T12:14:11.999Z,50.6240234375
2022-10-05T12:15:12.093Z,50.1923828125
2022-10-05T12:16:12.002Z,49.4140625
2022-10-05T12:17:11.926Z,49.23046875
2022-10-05T12:18:17.968Z,49.708984375
2022-10-05T12:19:12.020Z,49.921875
2022-10-05T12:20:12.011Z,50.3564453125
2022-10-05T12:21:11.898Z,51.060546875
2022-10-05T12:22:12.029Z,52.53515625
2022-10-05T12:23:12.352Z,54.3837890625
2022-10-05T12:24:11.901Z,55.92578125
2022-10-05T12:25:12.400Z,56.9296875
2022-10-05T12:26:11.998Z,58.0693359375
2022-10-05T12:27:12.066Z,58.93359375
2022-10-05T12:28:12.355Z,59.572265625
2022-10-05T12:29:14.977Z,60.1416015625
2022-10-05T12:30:11.970Z,60.6064453125
2022-10-05T12:31:11.968Z,60.6982421875
2022-10-05T12:32:11.905Z,61.099609375
2022-10-05T12:33:12.359Z,61.4384765625